Alvaraes, Brazil
Current Conditions -  °F | °C
As of 10:00 AM on Thursday 30 Oct 2014 (Local Time) from SBTF Reporting Station
Clear Clear  
Wind Chill: 88°   Ceiling: Unl
Heat Index: 105°   Visibility: 6mi
Dew Point: 81°   Wind: 9mph
Humidity: 79%   Direction: 100°E
Pressure: 29.8"   Gusts: NA
Location:  3.2°S, 64.82°W
Report Text: SBTF 301400Z 10008KT CAVOK 31/27 Q1009
Loading
Personal Weather Stations






























Interactive Weather Map
Tropical Storm Tracking
New forecast layout! Learn more

10-Day Weather Forecast

Advertisements
Track Severe Weather on mobile